createdAt,value
2022-11-02T00:01:45.830Z,17.45
2022-11-02T00:04:12.625Z,17.39
2022-11-02T00:06:41.350Z,17.42
2022-11-02T00:09:08.459Z,17.38
2022-11-02T00:11:37.665Z,17.41
2022-11-02T00:14:05.195Z,17.40
2022-11-02T00:16:33.602Z,17.37
2022-11-02T00:19:02.933Z,17.34
2022-11-02T00:21:29.934Z,17.29
2022-11-02T00:23:58.446Z,17.32
2022-11-02T00:26:27.430Z,17.26
2022-11-02T00:28:55.212Z,17.28
2022-11-02T00:31:22.110Z,17.30
2022-11-02T00:33:49.961Z,17.28
2022-11-02T00:36:17.353Z,17.30
2022-11-02T00:38:44.131Z,17.25
2022-11-02T00:41:13.204Z,17.28
2022-11-02T00:43:40.256Z,17.27
2022-11-02T00:46:07.064Z,17.22
2022-11-02T00:48:34.016Z,17.13
2022-11-02T00:51:00.886Z,17.15
2022-11-02T00:53:29.572Z,17.10
2022-11-02T00:55:56.280Z,17.07
2022-11-02T00:58:23.129Z,17.11
2022-11-02T01:00:51.243Z,17.10
2022-11-02T01:03:18.149Z,17.11
2022-11-02T01:05:44.976Z,17.03
2022-11-02T01:08:11.954Z,16.92
2022-11-02T01:10:41.602Z,16.87
2022-11-02T01:13:12.285Z,16.83
2022-11-02T01:15:40.109Z,16.84
2022-11-02T01:18:07.134Z,16.79
2022-11-02T01:20:34.104Z,16.83
2022-11-02T01:23:00.920Z,16.76
2022-11-02T01:25:27.949Z,16.73
2022-11-02T01:27:54.789Z,16.68
2022-11-02T01:30:21.562Z,16.62
2022-11-02T01:32:48.588Z,16.54
2022-11-02T01:35:16.887Z,16.42
2022-11-02T01:37:43.854Z,16.39
2022-11-02T01:40:11.112Z,16.27
2022-11-02T01:42:37.928Z,16.42
2022-11-02T01:45:08.012Z,16.43
2022-11-02T01:47:41.005Z,16.29
2022-11-02T01:50:18.184Z,16.25
2022-11-02T01:52:45.043Z,16.10
2022-11-02T01:55:22.884Z,16.06
2022-11-02T01:57:56.163Z,15.98
2022-11-02T02:00:23.204Z,15.95
2022-11-02T02:03:18.426Z,16.02
2022-11-02T02:05:50.446Z,16.02
2022-11-02T02:08:21.955Z,16.04
2022-11-02T02:10:48.743Z,15.94
2022-11-02T02:13:16.780Z,15.89
2022-11-02T02:16:02.361Z,15.81
2022-11-02T02:18:41.752Z,15.78
2022-11-02T02:21:08.502Z,15.86
2022-11-02T02:24:09.265Z,15.84
2022-11-02T02:27:28.059Z,15.81
2022-11-02T02:30:11.352Z,15.70
2022-11-02T02:32:41.183Z,15.76
2022-11-02T02:35:41.240Z,15.75
2022-11-02T02:38:45.829Z,15.75
2022-11-02T02:41:58.410Z,15.74
2022-11-02T02:44:32.232Z,15.66
2022-11-02T02:47:12.991Z,15.69
2022-11-02T02:49:50.784Z,15.69
2022-11-02T02:52:20.746Z,15.65
2022-11-02T02:54:50.094Z,15.74
2022-11-02T02:57:20.351Z,15.83
2022-11-02T02:59:51.562Z,15.89
2022-11-02T03:02:27.444Z,15.95
2022-11-02T03:04:54.642Z,16.04
2022-11-02T03:07:40.303Z,16.10
2022-11-02T03:10:19.322Z,16.17
2022-11-02T03:13:18.351Z,16.22
2022-11-02T03:15:56.303Z,16.22
2022-11-02T03:18:31.078Z,16.25
2022-11-02T03:21:33.193Z,16.23
2022-11-02T03:24:18.747Z,16.23
2022-11-02T03:27:01.709Z,16.27
2022-11-02T03:29:47.460Z,16.27
2022-11-02T03:32:26.625Z,16.30
2022-11-02T03:34:58.234Z,16.14
2022-11-02T03:37:34.937Z,16.04
2022-11-02T03:40:08.348Z,16.03
2022-11-02T03:42:37.049Z,15.89
2022-11-02T03:45:14.450Z,15.94
2022-11-02T03:47:47.096Z,15.84
2022-11-02T03:50:17.492Z,15.61
2022-11-02T03:52:47.930Z,15.59
2022-11-02T03:55:31.053Z,15.63
2022-11-02T03:57:59.297Z,15.66
2022-11-02T04:00:32.685Z,15.60
2022-11-02T04:03:07.766Z,15.57
2022-11-02T04:05:39.619Z,15.45
2022-11-02T04:08:22.653Z,15.36
2022-11-02T04:11:12.310Z,15.41
2022-11-02T04:13:59.715Z,15.45
2022-11-02T04:16:29.198Z,15.27
2022-11-02T04:19:28.373Z,15.10
2022-11-02T04:22:20.004Z,15.23
2022-11-02T04:25:09.633Z,15.33
2022-11-02T04:27:37.412Z,15.43
2022-11-02T04:30:05.895Z,15.37
2022-11-02T04:33:01.490Z,15.31
2022-11-02T04:35:32.000Z,15.19
2022-11-02T04:38:18.299Z,15.20
2022-11-02T04:40:46.097Z,15.18
2022-11-02T04:43:13.881Z,15.24
2022-11-02T04:45:41.510Z,15.28
2022-11-02T04:48:10.129Z,15.27
2022-11-02T04:50:38.470Z,15.26
2022-11-02T04:53:07.391Z,15.32
2022-11-02T04:55:35.525Z,15.42
2022-11-02T04:58:03.256Z,15.53
2022-11-02T05:00:30.497Z,15.57
2022-11-02T05:02:58.490Z,15.60
2022-11-02T05:05:27.827Z,15.58
2022-11-02T05:07:58.503Z,15.49
2022-11-02T05:10:25.750Z,15.44
2022-11-02T05:12:58.486Z,15.47
2022-11-02T05:15:29.720Z,15.46
2022-11-02T05:17:58.137Z,15.53
2022-11-02T05:20:26.447Z,15.47
2022-11-02T05:22:53.998Z,15.47
2022-11-02T05:25:23.567Z,15.52
2022-11-02T05:27:51.424Z,15.64
2022-11-02T05:30:19.208Z,15.78
2022-11-02T05:32:46.289Z,15.82
2022-11-02T05:35:13.848Z,15.84
2022-11-02T05:37:40.973Z,15.87
2022-11-02T05:40:08.929Z,15.89
2022-11-02T05:42:36.680Z,15.97
2022-11-02T05:45:03.916Z,15.94
2022-11-02T05:47:30.967Z,15.92
2022-11-02T05:49:57.658Z,15.91
2022-11-02T05:52:24.557Z,15.94
2022-11-02T05:54:51.730Z,15.94
2022-11-02T05:57:19.261Z,15.98
2022-11-02T05:59:49.190Z,15.88
2022-11-02T06:02:16.490Z,15.80
2022-11-02T06:04:43.273Z,15.83
2022-11-02T06:07:10.042Z,15.91
2022-11-02T06:09:37.054Z,15.94
2022-11-02T06:12:04.232Z,15.98
2022-11-02T06:14:31.150Z,16.02
2022-11-02T06:16:58.089Z,16.06
2022-11-02T06:19:25.191Z,16.02
2022-11-02T06:21:52.379Z,16.05
2022-11-02T06:24:19.602Z,16.11
2022-11-02T06:26:47.016Z,16.11
2022-11-02T06:29:13.888Z,16.09
2022-11-02T06:31:40.939Z,16.09
2022-11-02T06:34:07.652Z,16.08
2022-11-02T06:36:34.517Z,16.05
2022-11-02T06:39:01.434Z,15.98
2022-11-02T06:41:28.288Z,16.00
2022-11-02T06:43:55.127Z,15.93
2022-11-02T06:46:21.934Z,15.92
2022-11-02T06:48:48.808Z,15.97
2022-11-02T06:51:15.680Z,16.05
2022-11-02T06:53:42.404Z,16.10
2022-11-02T06:56:09.592Z,16.14
2022-11-02T06:58:36.388Z,16.20
2022-11-02T07:01:07.447Z,16.23
2022-11-02T07:03:34.629Z,16.29
2022-11-02T07:06:01.914Z,16.29
2022-11-02T07:08:29.624Z,16.26
2022-11-02T07:10:56.673Z,16.26
2022-11-02T07:13:23.728Z,16.23
2022-11-02T07:15:54.693Z,16.26
2022-11-02T07:18:22.345Z,16.25
2022-11-02T07:20:49.169Z,16.19
2022-11-02T07:23:16.003Z,16.11
2022-11-02T07:25:42.772Z,16.09
2022-11-02T07:28:10.201Z,16.08
2022-11-02T07:30:37.124Z,16.06
2022-11-02T07:33:04.646Z,16.02
2022-11-02T07:35:31.854Z,16.00
2022-11-02T07:38:03.852Z,16.11
2022-11-02T07:40:32.360Z,16.21
2022-11-02T07:42:59.721Z,16.23
2022-11-02T07:45:52.417Z,16.29
2022-11-02T07:48:19.280Z,16.31
2022-11-02T07:50:46.195Z,16.39
2022-11-02T07:53:13.267Z,16.52
2022-11-02T07:55:40.483Z,16.59
2022-11-02T07:58:11.149Z,16.63
2022-11-02T08:00:39.605Z,16.66
2022-11-02T08:03:08.893Z,16.69
2022-11-02T08:05:39.173Z,16.75
2022-11-02T08:08:09.170Z,16.83
2022-11-02T08:10:37.415Z,16.89
2022-11-02T08:13:13.037Z,17.08
2022-11-02T08:15:40.045Z,17.11
2022-11-02T08:18:18.125Z,17.19
2022-11-02T08:20:48.872Z,17.17
2022-11-02T08:23:19.055Z,17.14
2022-11-02T08:25:47.736Z,17.10
2022-11-02T08:28:24.073Z,17.16
2022-11-02T08:30:51.164Z,17.18
2022-11-02T08:33:19.869Z,17.11
2022-11-02T08:35:47.938Z,17.09
2022-11-02T08:38:15.902Z,17.12
2022-11-02T08:40:43.663Z,17.18
2022-11-02T08:43:14.581Z,17.22
2022-11-02T08:48:33.226Z,17.31
2022-11-02T08:51:00.099Z,17.43
2022-11-02T08:53:27.268Z,17.60
2022-11-02T08:55:57.635Z,17.67
2022-11-02T08:58:24.504Z,17.74
2022-11-02T09:00:53.514Z,17.75
2022-11-02T09:03:26.199Z,17.69
2022-11-02T09:05:59.499Z,17.69
2022-11-02T09:08:28.492Z,17.68
2022-11-02T09:11:00.354Z,17.66
2022-11-02T09:13:28.076Z,17.63
2022-11-02T09:15:57.591Z,17.62
2022-11-02T09:18:24.875Z,17.55
2022-11-02T09:20:52.048Z,17.47
2022-11-02T09:23:22.215Z,17.47
2022-11-02T09:25:52.530Z,17.46
2022-11-02T09:28:19.464Z,17.45
2022-11-02T09:30:46.437Z,17.41
2022-11-02T09:33:13.641Z,17.48
2022-11-02T09:35:49.894Z,17.46
2022-11-02T09:38:20.734Z,17.45
2022-11-02T09:40:59.847Z,17.46
2022-11-02T09:43:53.502Z,17.45
2022-11-02T09:46:30.609Z,17.52
2022-11-02T09:49:05.634Z,17.58
2022-11-02T09:51:39.055Z,17.64
2022-11-02T09:54:11.737Z,17.68
2022-11-02T09:56:43.608Z,17.72
2022-11-02T09:59:15.643Z,17.74
2022-11-02T10:02:06.989Z,17.73
2022-11-02T10:04:48.788Z,17.70
2022-11-02T10:07:53.714Z,17.68
2022-11-02T10:10:40.401Z,17.65
2022-11-02T10:13:28.996Z,17.57
2022-11-02T10:16:15.525Z,17.62
2022-11-02T10:18:43.917Z,17.56
2022-11-02T10:21:25.356Z,17.59
2022-11-02T10:23:55.293Z,17.53
2022-11-02T10:26:29.268Z,17.62
2022-11-02T10:29:03.255Z,17.65
2022-11-02T10:31:34.345Z,17.70
2022-11-02T10:34:22.014Z,17.75
2022-11-02T10:37:07.363Z,17.74
2022-11-02T10:39:52.790Z,17.73
2022-11-02T10:42:44.140Z,17.72
2022-11-02T10:45:32.742Z,17.75
2022-11-02T10:48:10.847Z,17.72
2022-11-02T10:50:59.480Z,17.79
2022-11-02T10:53:42.559Z,17.89
2022-11-02T10:56:17.212Z,17.95
2022-11-02T10:59:01.401Z,18.02
2022-11-02T11:01:30.262Z,18.03
2022-11-02T11:04:19.605Z,18.06
2022-11-02T11:06:46.449Z,18.02
2022-11-02T11:09:25.192Z,18.10
2022-11-02T11:12:27.456Z,18.23
2022-11-02T11:20:39.773Z,18.35
2022-11-02T11:23:15.808Z,18.39
2022-11-02T11:25:43.425Z,18.40
2022-11-02T11:28:42.382Z,18.51
2022-11-02T11:31:14.536Z,18.60
2022-11-02T11:33:44.544Z,18.65
2022-11-02T11:36:20.146Z,18.75
2022-11-02T11:38:49.408Z,18.86
2022-11-02T11:41:17.178Z,19.09
2022-11-02T11:43:47.136Z,19.37
2022-11-02T11:46:14.798Z,19.70
2022-11-02T11:48:57.699Z,19.88
2022-11-02T11:51:37.671Z,20.06
2022-11-02T11:54:19.581Z,20.17
2022-11-02T11:56:48.147Z,20.43
2022-11-02T11:59:44.322Z,20.57
2022-11-02T12:02:25.251Z,20.61
2022-11-02T12:04:59.777Z,20.59
2022-11-02T12:08:04.661Z,20.68
2022-11-02T12:10:53.930Z,20.82
2022-11-02T12:13:52.548Z,20.93
2022-11-02T12:16:34.270Z,20.88
2022-11-02T12:19:21.268Z,20.86
2022-11-02T12:22:12.575Z,20.86
2022-11-02T12:24:58.015Z,20.83
2022-11-02T12:27:49.810Z,20.73
2022-11-02T12:30:25.487Z,20.71
2022-11-02T12:32:52.211Z,20.59
2022-11-02T12:35:31.117Z,20.52
2022-11-02T12:38:10.398Z,20.50
2022-11-02T12:41:02.166Z,20.56
2022-11-02T12:43:35.785Z,20.59
2022-11-02T12:46:07.732Z,20.57
2022-11-02T12:49:35.691Z,20.52
2022-11-02T12:52:29.098Z,20.28
2022-11-02T12:54:59.080Z,20.15
2022-11-02T12:57:31.869Z,19.99
2022-11-02T13:00:02.473Z,19.89
2022-11-02T13:02:38.111Z,19.80
2022-11-02T13:05:14.699Z,19.74
2022-11-02T13:07:47.987Z,19.69
2022-11-02T13:10:18.056Z,19.67
2022-11-02T13:12:48.436Z,19.58
2022-11-02T13:15:20.258Z,19.50
2022-11-02T13:17:54.728Z,19.48
2022-11-02T13:20:59.089Z,19.45
2022-11-02T13:23:40.795Z,19.46
2022-11-02T13:26:20.006Z,19.48
2022-11-02T13:29:07.029Z,19.49
2022-11-02T13:31:39.018Z,19.53
2022-11-02T13:34:14.358Z,19.57
2022-11-02T13:36:42.678Z,19.56
2022-11-02T13:39:28.381Z,19.53
2022-11-02T13:42:24.646Z,19.60
2022-11-02T13:45:15.614Z,19.59
2022-11-02T13:47:51.753Z,19.62
2022-11-02T13:50:22.438Z,19.57
2022-11-02T13:52:57.954Z,19.56
2022-11-02T13:55:41.431Z,19.58
2022-11-02T13:58:27.884Z,19.62
2022-11-02T14:01:00.594Z,19.53
2022-11-02T14:03:51.268Z,19.55
2022-11-02T14:06:20.213Z,19.52
2022-11-02T14:08:59.709Z,19.51
2022-11-02T14:11:48.064Z,19.50
2022-11-02T14:14:25.443Z,19.50
2022-11-02T14:16:52.333Z,19.48
2022-11-02T14:19:22.365Z,19.48
2022-11-02T14:21:49.347Z,19.47
2022-11-02T14:24:42.359Z,19.45
2022-11-02T14:27:11.947Z,19.48
2022-11-02T14:29:47.912Z,19.45
2022-11-02T14:32:17.954Z,19.43
2022-11-02T14:35:15.888Z,19.40
2022-11-02T14:38:13.783Z,19.33
2022-11-02T14:41:06.176Z,19.36
2022-11-02T14:44:23.718Z,19.44
2022-11-02T14:46:58.114Z,19.42
2022-11-02T14:49:39.852Z,19.39
2022-11-02T14:52:15.879Z,19.47
2022-11-02T14:54:52.230Z,19.52
2022-11-02T14:57:26.631Z,19.53
2022-11-02T14:59:57.403Z,19.51
2022-11-02T15:02:28.484Z,19.50
2022-11-02T15:04:58.308Z,19.47
2022-11-02T15:07:37.277Z,19.55
2022-11-02T15:10:28.285Z,19.55
2022-11-02T15:13:21.621Z,19.51
2022-11-02T15:15:51.175Z,19.55
2022-11-02T15:18:35.793Z,19.56
2022-11-02T15:21:11.748Z,19.50
2022-11-02T15:24:16.999Z,19.42
2022-11-02T15:26:52.168Z,19.47
2022-11-02T15:29:46.649Z,19.45
2022-11-02T15:32:23.081Z,19.42
2022-11-02T15:34:57.445Z,19.38
2022-11-02T15:37:37.368Z,19.34
2022-11-02T15:40:22.797Z,19.31
2022-11-02T15:43:05.741Z,19.24
2022-11-02T15:46:03.523Z,19.18
2022-11-02T15:48:44.079Z,19.14
2022-11-02T15:51:47.218Z,19.06
2022-11-02T15:54:29.117Z,19.01
2022-11-02T15:57:34.616Z,18.96
2022-11-02T16:00:20.186Z,18.94
2022-11-02T16:02:50.288Z,18.95
2022-11-02T16:05:29.575Z,18.91
2022-11-02T16:08:10.983Z,18.83
2022-11-02T16:10:38.149Z,18.84
2022-11-02T16:13:08.018Z,18.58
2022-11-02T16:15:37.690Z,18.44
2022-11-02T16:18:05.055Z,18.46
2022-11-02T16:20:37.362Z,18.42
2022-11-02T16:23:06.158Z,18.42
2022-11-02T16:49:10.343Z,18.32
2022-11-02T16:51:38.315Z,18.23
2022-11-02T16:54:50.623Z,18.10
2022-11-02T16:57:22.369Z,18.09
2022-11-02T16:59:53.723Z,18.14
2022-11-02T17:02:31.088Z,18.07
2022-11-02T17:05:02.648Z,18.05
2022-11-02T17:07:42.210Z,18.01
2022-11-02T17:10:19.362Z,17.97
2022-11-02T17:12:48.150Z,17.83
2022-11-02T17:15:17.648Z,17.77
2022-11-02T17:17:45.476Z,17.62
2022-11-02T17:20:14.957Z,17.65
2022-11-02T17:22:52.351Z,17.62
2022-11-02T17:25:26.529Z,17.68
2022-11-02T17:27:55.505Z,17.57
2022-11-02T17:30:34.561Z,17.57
2022-11-02T17:33:19.084Z,17.51
2022-11-02T17:35:48.189Z,17.49
2022-11-02T17:38:15.784Z,17.56
2022-11-02T17:40:42.660Z,17.55
2022-11-02T17:43:09.475Z,17.57
2022-11-02T17:45:38.562Z,17.61
2022-11-02T17:48:07.972Z,17.63
2022-11-02T17:50:37.176Z,17.49
2022-11-02T17:53:05.919Z,17.43
2022-11-02T17:55:34.833Z,17.38
2022-11-02T17:58:03.216Z,17.37
2022-11-02T18:00:30.261Z,17.37
2022-11-02T18:02:59.055Z,17.48
2022-11-02T18:05:30.193Z,17.53
2022-11-02T18:07:58.923Z,17.59
2022-11-02T18:10:30.435Z,17.69
2022-11-02T18:12:57.703Z,17.57
2022-11-02T18:15:29.648Z,17.56
2022-11-02T18:17:57.046Z,17.63
2022-11-02T18:20:27.697Z,17.68
2022-11-02T18:22:57.185Z,17.69
2022-11-02T18:25:26.593Z,17.65
2022-11-02T18:27:53.571Z,17.58
2022-11-02T18:30:20.501Z,17.60
2022-11-02T18:32:47.868Z,17.59
2022-11-02T18:35:19.949Z,17.62
2022-11-02T18:37:47.697Z,17.65
2022-11-02T18:40:17.263Z,17.70
2022-11-02T18:42:45.553Z,17.72
2022-11-02T18:45:14.479Z,17.73
2022-11-02T18:47:42.179Z,17.79
2022-11-02T18:50:11.985Z,17.74
2022-11-02T18:52:39.743Z,17.77
2022-11-02T18:55:07.138Z,17.77
2022-11-02T18:57:34.223Z,17.80
2022-11-02T19:00:02.968Z,17.81
2022-11-02T19:02:30.325Z,17.83
2022-11-02T19:04:57.396Z,17.76
2022-11-02T19:07:43.150Z,17.83
2022-11-02T19:10:10.628Z,17.85
2022-11-02T19:12:37.757Z,17.86
2022-11-02T19:15:05.322Z,17.86
2022-11-02T19:17:32.340Z,17.91
2022-11-02T19:19:59.644Z,17.86
2022-11-02T19:22:27.467Z,17.89
2022-11-02T19:24:54.525Z,17.88
2022-11-02T19:27:25.962Z,17.89
2022-11-02T19:29:53.350Z,17.90
2022-11-02T19:32:21.201Z,17.82
2022-11-02T19:34:48.054Z,17.79
2022-11-02T19:37:15.026Z,17.75
2022-11-02T19:39:42.280Z,17.73
2022-11-02T19:42:09.322Z,17.75
2022-11-02T19:44:42.242Z,17.64
2022-11-02T19:47:10.444Z,17.64
2022-11-02T19:49:38.497Z,17.60
2022-11-02T19:52:06.007Z,17.38
2022-11-02T19:54:36.733Z,17.26
2022-11-02T19:57:04.436Z,17.27
2022-11-02T19:59:31.680Z,17.29
2022-11-02T20:01:58.879Z,17.32
2022-11-02T20:04:26.857Z,17.34
2022-11-02T20:06:54.811Z,17.37
2022-11-02T20:09:22.000Z,17.34
2022-11-02T20:11:50.135Z,17.20
2022-11-02T20:14:18.129Z,17.02
2022-11-02T20:16:58.337Z,16.97
2022-11-02T20:19:27.254Z,16.92
2022-11-02T20:21:54.889Z,16.86
2022-11-02T20:24:24.964Z,16.83
2022-11-02T20:26:58.475Z,16.80
2022-11-02T20:29:26.150Z,16.78
2022-11-02T20:31:53.705Z,16.74
2022-11-02T20:34:21.033Z,16.72
2022-11-02T20:36:48.398Z,16.57
2022-11-02T20:39:16.126Z,16.47
2022-11-02T20:41:44.164Z,16.56
2022-11-02T20:44:14.046Z,16.61
2022-11-02T20:46:42.450Z,16.68
2022-11-02T20:49:21.275Z,16.71
2022-11-02T20:51:57.621Z,16.65
2022-11-02T20:54:25.402Z,16.65
2022-11-02T20:56:52.732Z,16.61
2022-11-02T20:59:20.435Z,16.59
2022-11-02T21:01:48.433Z,16.51
2022-11-02T21:04:20.723Z,16.45
2022-11-02T21:06:50.507Z,16.43
2022-11-02T21:09:18.933Z,16.45
2022-11-02T21:12:05.345Z,16.40
2022-11-02T21:14:32.755Z,16.38
2022-11-02T21:17:00.565Z,16.45
2022-11-02T21:19:27.838Z,16.53
2022-11-02T21:21:59.647Z,16.58
2022-11-02T21:24:28.445Z,16.66
2022-11-02T21:26:56.869Z,16.60
2022-11-02T21:29:24.931Z,16.54
2022-11-02T21:31:52.579Z,16.50
2022-11-02T21:34:23.580Z,16.50
2022-11-02T21:36:54.411Z,16.50
2022-11-02T21:39:24.445Z,16.56
2022-11-02T21:41:54.595Z,16.57
2022-11-02T21:44:29.182Z,16.60
2022-11-02T21:46:59.202Z,16.62
2022-11-02T21:49:26.762Z,16.61
2022-11-02T21:51:54.931Z,16.47
2022-11-02T21:54:23.059Z,16.54
2022-11-02T21:56:50.796Z,16.52
2022-11-02T21:59:18.406Z,16.51
2022-11-02T22:01:46.108Z,16.46
2022-11-02T22:04:25.642Z,16.45
2022-11-02T22:06:53.428Z,16.51
2022-11-02T22:09:20.930Z,16.53
2022-11-02T22:11:48.083Z,16.47
2022-11-02T22:14:15.176Z,16.52
2022-11-02T22:16:43.694Z,16.37
2022-11-02T22:19:12.894Z,16.23
2022-11-02T22:21:44.884Z,16.18
2022-11-02T22:24:12.535Z,16.32
2022-11-02T22:26:40.550Z,16.38
2022-11-02T22:29:07.840Z,16.42
2022-11-02T22:31:40.051Z,16.48
2022-11-02T22:34:12.543Z,16.52
2022-11-02T22:36:42.465Z,16.55
2022-11-02T22:39:12.744Z,16.58
2022-11-02T22:41:41.020Z,16.61
2022-11-02T22:44:07.768Z,16.59
2022-11-02T22:46:37.862Z,16.49
2022-11-02T22:49:05.904Z,16.42
2022-11-02T22:51:39.658Z,16.38
2022-11-02T22:54:10.002Z,16.39
2022-11-02T22:56:36.785Z,16.39
2022-11-02T22:59:04.250Z,16.46
2022-11-02T23:01:32.483Z,16.40
2022-11-02T23:04:01.190Z,16.29
2022-11-02T23:06:28.905Z,16.27
2022-11-02T23:09:00.184Z,16.26
2022-11-02T23:11:31.245Z,16.25
2022-11-02T23:14:03.666Z,16.35
2022-11-02T23:16:37.681Z,16.40
2022-11-02T23:19:27.905Z,16.36
2022-11-02T23:22:22.441Z,16.35
2022-11-02T23:25:08.669Z,16.30
2022-11-02T23:27:59.945Z,16.25
2022-11-02T23:30:50.960Z,16.21
2022-11-02T23:33:18.732Z,16.23
2022-11-02T23:36:04.080Z,16.30
2022-11-02T23:38:50.158Z,16.35
2022-11-02T23:41:18.320Z,16.37
2022-11-02T23:43:46.260Z,16.41
2022-11-02T23:46:13.637Z,16.44
2022-11-02T23:48:47.047Z,16.38
2022-11-02T23:51:37.759Z,16.39
2022-11-02T23:54:23.367Z,16.44
2022-11-02T23:56:50.314Z,16.53
2022-11-02T23:59:18.473Z,16.57
